Time;durP1;ratioP1;P1;durP2;ratioP2;P2;SDS_P1;SDS_P2;PMS_P1;PMS_P2;Temp;Humidity;BMP_temperature;BMP_pressure;BME280_temperature;BME280_humidity;BME280_pressure;Samples;Min_cycle;Max_cycle;Signal;HPM_P1;HPM_P2
2022/03/17 00:02:26;;;;;;;70.53;51.20;;;12.70;79.40;;;;;;5028775;28;20246;-68
2022/03/17 00:04:53;;;;;;;79.47;52.77;;;12.70;79.20;;;;;;5024334;28;20231;-68
2022/03/17 00:07:20;;;;;;;80.80;56.30;;;12.70;79.00;;;;;;5025941;28;20206;-68
2022/03/17 00:09:48;;;;;;;71.77;53.03;;;12.70;78.80;;;;;;5008167;28;20246;-68
2022/03/17 00:12:15;;;;;;;71.97;51.57;;;12.70;78.80;;;;;;5028802;28;20207;-68
2022/03/17 00:14:42;;;;;;;69.07;50.60;;;12.60;78.70;;;;;;5020182;28;20224;-68
2022/03/17 00:17:09;;;;;;;76.47;52.77;;;12.60;78.80;;;;;;5002847;28;20200;-68
2022/03/17 00:19:37;;;;;;;72.63;52.80;;;12.60;79.10;;;;;;5025819;28;20663;-68
2022/03/17 00:22:06;;;;;;;84.00;56.60;;;12.50;78.90;;;;;;5025516;28;20196;-68
2022/03/17 00:24:33;;;;;;;75.10;53.80;;;12.50;78.90;;;;;;5017159;28;20204;-68
2022/03/17 00:27:00;;;;;;;77.43;53.30;;;12.50;78.80;;;;;;5010601;28;20245;-68
2022/03/17 00:29:27;;;;;;;83.03;54.23;;;12.60;78.70;;;;;;4997714;28;20210;-68
2022/03/17 00:31:55;;;;;;;80.93;55.00;;;12.60;78.50;;;;;;5030455;28;20209;-68
2022/03/17 00:34:22;;;;;;;78.27;55.00;;;12.50;78.50;;;;;;5011052;28;20314;-68
2022/03/17 00:36:49;;;;;;;82.13;55.77;;;12.60;78.40;;;;;;5024632;28;20217;-68
2022/03/17 00:39:16;;;;;;;81.77;56.53;;;12.60;78.40;;;;;;5026635;28;20303;-68
2022/03/17 00:41:44;;;;;;;81.37;57.10;;;12.60;78.40;;;;;;5020762;28;20211;-68
2022/03/17 00:44:11;;;;;;;83.73;55.50;;;12.60;78.10;;;;;;5023654;28;20900;-68
2022/03/17 00:46:39;;;;;;;76.97;54.50;;;12.60;77.90;;;;;;5030497;28;20206;-68
2022/03/17 00:49:07;;;;;;;78.90;54.90;;;12.60;77.80;;;;;;5030893;28;20270;-68
2022/03/17 00:51:34;;;;;;;84.07;56.27;;;12.60;77.80;;;;;;5027737;28;20210;-68
2022/03/17 00:54:01;;;;;;;79.77;53.03;;;12.60;77.70;;;;;;5017550;28;20218;-68
2022/03/17 00:56:29;;;;;;;83.70;57.80;;;12.60;77.50;;;;;;5016275;28;20210;-68
2022/03/17 00:58:56;;;;;;;79.53;53.47;;;12.60;77.60;;;;;;5019365;28;20210;-68
2022/03/17 01:01:23;;;;;;;74.50;54.63;;;12.50;77.80;;;;;;5002589;28;20238;-68
2022/03/17 01:03:50;;;;;;;78.43;55.00;;;12.50;77.90;;;;;;5023580;28;20219;-68
2022/03/17 01:06:17;;;;;;;83.67;56.90;;;12.50;78.20;;;;;;5023256;28;20205;-68
2022/03/17 01:08:44;;;;;;;83.40;57.77;;;12.50;78.30;;;;;;5024271;28;20220;-68
2022/03/17 01:11:12;;;;;;;80.87;57.07;;;12.40;78.40;;;;;;5026036;28;20210;-68
2022/03/17 01:13:39;;;;;;;84.67;55.93;;;12.40;78.70;;;;;;5024666;28;20222;-68
2022/03/17 01:16:07;;;;;;;87.97;59.77;;;12.40;78.90;;;;;;5020877;28;20225;-68
2022/03/17 01:18:34;;;;;;;81.47;58.03;;;12.30;79.00;;;;;;5000191;28;20204;-68
2022/03/17 01:21:01;;;;;;;84.43;57.87;;;12.30;79.30;;;;;;5023543;28;20558;-68
2022/03/17 01:23:33;;;;;;;84.23;58.40;;;12.30;79.50;;;;;;5016096;28;20297;-68
2022/03/17 01:26:00;;;;;;;90.97;58.97;;;12.30;79.60;;;;;;5026249;28;20206;-68
2022/03/17 01:28:27;;;;;;;83.53;57.50;;;12.20;79.80;;;;;;5026364;28;20209;-68
2022/03/17 01:30:54;;;;;;;83.93;59.20;;;12.20;79.90;;;;;;5013565;28;20613;-68
2022/03/17 01:33:21;;;;;;;85.60;57.80;;;12.20;80.10;;;;;;5012174;28;20246;-68
2022/03/17 01:35:48;;;;;;;86.13;59.10;;;12.20;80.00;;;;;;5024369;28;20231;-68
2022/03/17 01:38:15;;;;;;;84.50;60.97;;;12.20;80.10;;;;;;5025106;28;20210;-68
2022/03/17 01:40:42;;;;;;;88.73;61.00;;;12.20;80.10;;;;;;5024987;28;20209;-68
2022/03/17 01:43:09;;;;;;;88.20;59.53;;;12.20;80.10;;;;;;5006326;28;20257;-68
2022/03/17 01:45:36;;;;;;;86.87;59.87;;;12.20;80.20;;;;;;5024196;28;20213;-68
2022/03/17 01:48:04;;;;;;;84.67;60.90;;;12.30;80.40;;;;;;5021225;28;20202;-68
2022/03/17 01:50:31;;;;;;;83.17;58.90;;;12.20;80.40;;;;;;5017652;28;20233;-68
2022/03/17 01:52:58;;;;;;;89.13;60.13;;;12.20;80.40;;;;;;5024577;28;20642;-68
2022/03/17 01:55:25;;;;;;;89.50;60.53;;;12.20;80.50;;;;;;5015156;28;20232;-68
2022/03/17 01:57:53;;;;;;;98.27;60.57;;;12.20;80.50;;;;;;5014955;28;20205;-68
2022/03/17 02:00:21;;;;;;;90.87;60.80;;;12.30;80.60;;;;;;5016550;28;20225;-68
2022/03/17 02:02:49;;;;;;;85.30;57.60;;;12.30;80.50;;;;;;5018432;28;20206;-68
2022/03/17 02:05:17;;;;;;;95.07;61.07;;;12.20;81.20;;;;;;5017060;28;20209;-68
2022/03/17 02:07:51;;;;;;;89.53;58.10;;;12.20;80.50;;;;;;5026642;28;20276;-68
2022/03/17 02:10:20;;;;;;;83.00;58.00;;;12.20;80.50;;;;;;5023857;28;20214;-68
2022/03/17 02:15:34;;;;;;;92.57;62.53;;;12.20;80.60;;;;;;5026091;28;20220;-68
2022/03/17 02:18:03;;;;;;;96.10;61.90;;;12.20;80.60;;;;;;5027443;28;20598;-68
2022/03/17 02:20:32;;;;;;;96.43;64.10;;;12.10;81.00;;;;;;5029291;28;20210;-68
2022/03/17 02:25:54;;;;;;;94.47;62.33;;;12.00;81.40;;;;;;5024666;28;20206;-68
2022/03/17 02:28:22;;;;;;;89.07;61.50;;;12.00;81.50;;;;;;5014695;28;20232;-68
2022/03/17 02:30:50;;;;;;;85.67;58.40;;;12.00;81.50;;;;;;5015491;28;20620;-68
2022/03/17 02:33:18;;;;;;;92.47;60.40;;;12.00;81.60;;;;;;5019478;28;20226;-68
2022/03/17 02:35:48;;;;;;;97.20;62.93;;;11.90;81.80;;;;;;5022299;28;20631;-68
2022/03/17 02:38:17;;;;;;;93.13;60.20;;;11.90;81.80;;;;;;5027249;28;20206;-68
2022/03/17 02:40:46;;;;;;;89.80;60.13;;;11.90;81.90;;;;;;5025565;28;20207;-68
2022/03/17 02:43:15;;;;;;;95.47;61.70;;;11.90;82.10;;;;;;5009184;28;20209;-68
2022/03/17 02:45:43;;;;;;;96.77;65.63;;;11.80;82.20;;;;;;5027463;28;20587;-68
2022/03/17 02:48:11;;;;;;;97.77;65.50;;;11.80;82.50;;;;;;5024141;28;20265;-68
2022/03/17 02:50:39;;;;;;;94.57;64.17;;;11.80;82.80;;;;;;5028380;28;20668;-68
2022/03/17 02:53:10;;;;;;;97.07;63.27;;;11.80;82.80;;;;;;5032687;28;20201;-68
2022/03/17 02:55:43;;;;;;;96.07;63.13;;;11.80;82.90;;;;;;5034726;28;20228;-68
2022/03/17 02:58:11;;;;;;;97.30;63.70;;;11.80;83.10;;;;;;5029471;28;20649;-68
2022/03/17 03:00:38;;;;;;;92.57;63.47;;;11.80;83.30;;;;;;5018487;28;20242;-68
2022/03/17 03:03:06;;;;;;;97.43;65.13;;;11.80;83.50;;;;;;5034675;28;20268;-68
2022/03/17 03:05:34;;;;;;;98.77;65.77;;;11.80;83.60;;;;;;5031586;28;20204;-68
2022/03/17 03:08:02;;;;;;;92.10;61.70;;;11.80;83.70;;;;;;5031531;28;20222;-68
2022/03/17 03:10:30;;;;;;;96.73;64.97;;;11.80;83.80;;;;;;5029513;28;20312;-68
2022/03/17 03:12:58;;;;;;;94.20;64.80;;;11.90;83.90;;;;;;5023108;28;20205;-68
2022/03/17 03:15:26;;;;;;;99.73;65.37;;;11.80;83.80;;;;;;5025494;28;20225;-68
2022/03/17 03:17:54;;;;;;;94.53;64.90;;;11.80;83.90;;;;;;5028546;28;20342;-68
2022/03/17 03:20:22;;;;;;;102.33;68.03;;;11.80;84.00;;;;;;5030244;28;20257;-68
2022/03/17 03:22:49;;;;;;;101.80;64.20;;;11.80;84.00;;;;;;5014405;28;20205;-68
2022/03/17 03:25:16;;;;;;;93.87;64.07;;;11.80;84.00;;;;;;5032042;28;20222;-68
2022/03/17 03:27:44;;;;;;;96.00;64.50;;;11.80;84.10;;;;;;5033865;28;20273;-68
2022/03/17 03:30:13;;;;;;;101.20;64.60;;;11.80;84.80;;;;;;5017223;28;20213;-68
2022/03/17 03:32:47;;;;;;;99.10;63.73;;;11.80;84.10;;;;;;5016975;28;20241;-68
2022/03/17 03:38:01;;;;;;;96.67;62.90;;;11.80;84.10;;;;;;5025240;28;20221;-68
2022/03/17 03:40:28;;;;;;;94.37;64.03;;;11.80;84.10;;;;;;5026564;28;20207;-68
2022/03/17 03:42:55;;;;;;;97.27;66.60;;;11.90;84.20;;;;;;5025081;28;20230;-68
2022/03/17 03:45:22;;;;;;;98.67;64.03;;;11.90;84.20;;;;;;5025287;28;20540;-68
2022/03/17 03:47:49;;;;;;;94.57;64.70;;;11.90;84.30;;;;;;5024130;28;20213;-68
2022/03/17 03:50:16;;;;;;;95.53;65.67;;;11.90;84.40;;;;;;5008788;28;20214;-68
2022/03/17 03:52:43;;;;;;;95.73;64.87;;;11.90;84.50;;;;;;5029767;28;20216;-68
2022/03/17 03:55:11;;;;;;;99.37;65.37;;;11.90;84.50;;;;;;5014291;28;20237;-68
2022/03/17 03:57:38;;;;;;;95.73;63.83;;;11.90;84.60;;;;;;5025845;28;20200;-68
2022/03/17 04:00:40;;;;;;;100.57;65.10;;;11.90;84.60;;;;;;5000314;28;20296;-68
2022/03/17 04:03:03;;;;;;;91.77;61.47;;;11.90;84.60;;;;;;5013250;28;20221;-68
2022/03/17 04:05:33;;;;;;;93.07;64.50;;;11.90;84.60;;;;;;5014297;28;20660;-68
2022/03/17 04:08:02;;;;;;;96.63;65.53;;;11.90;84.60;;;;;;5028398;28;20247;-68
2022/03/17 04:10:30;;;;;;;100.27;64.73;;;11.90;84.60;;;;;;5013249;28;20259;-68
2022/03/17 04:12:57;;;;;;;99.17;66.13;;;11.90;84.60;;;;;;5028479;28;20541;-68
2022/03/17 04:15:25;;;;;;;97.50;64.70;;;11.90;84.60;;;;;;5026901;28;20231;-68
2022/03/17 04:17:52;;;;;;;101.83;65.63;;;11.90;84.60;;;;;;5008821;28;20214;-68
2022/03/17 04:20:20;;;;;;;106.53;66.33;;;11.90;84.50;;;;;;5024111;28;20637;-68
2022/03/17 04:22:47;;;;;;;95.20;63.73;;;11.90;84.60;;;;;;5024960;28;20229;-68
2022/03/17 04:25:14;;;;;;;96.97;64.33;;;11.90;84.60;;;;;;5030434;28;20242;-68
2022/03/17 04:27:42;;;;;;;90.30;60.97;;;11.90;84.70;;;;;;5014389;28;20210;-68
2022/03/17 04:30:09;;;;;;;93.67;64.10;;;11.90;84.70;;;;;;5020338;28;20222;-68
2022/03/17 04:32:36;;;;;;;95.43;66.40;;;11.90;84.70;;;;;;5016168;28;20208;-68
2022/03/17 04:35:04;;;;;;;92.03;64.93;;;11.90;84.70;;;;;;5020176;28;20292;-68
2022/03/17 04:37:32;;;;;;;98.53;63.93;;;11.90;84.60;;;;;;5018235;28;20310;-68
2022/03/17 04:39:59;;;;;;;96.40;63.37;;;11.90;84.50;;;;;;5022005;28;20603;-68
2022/03/17 04:42:26;;;;;;;96.20;62.67;;;11.90;84.20;;;;;;5021126;28;20254;-68
2022/03/17 04:44:55;;;;;;;97.20;61.60;;;11.90;84.20;;;;;;5023613;28;20203;-68
2022/03/17 04:47:22;;;;;;;92.90;60.77;;;11.90;84.20;;;;;;5024671;28;20208;-68
2022/03/17 04:49:49;;;;;;;92.50;59.43;;;11.90;84.20;;;;;;5008779;28;20214;-68
2022/03/17 04:55:01;;;;;;;89.47;61.53;;;11.80;84.50;;;;;;5019972;28;20212;-68
2022/03/17 04:57:29;;;;;;;87.73;59.17;;;11.80;84.80;;;;;;5019874;28;20202;-68
2022/03/17 04:59:55;;;;;;;79.30;58.10;;;11.70;85.10;;;;;;5018456;28;20206;-68
2022/03/17 05:02:22;;;;;;;88.10;59.40;;;11.70;86.00;;;;;;5020944;28;20574;-68
2022/03/17 05:04:51;;;;;;;84.77;58.50;;;11.70;85.50;;;;;;5031639;28;20640;-68
2022/03/17 05:07:18;;;;;;;86.70;59.20;;;11.70;85.70;;;;;;5016481;28;20529;-68
2022/03/17 05:09:45;;;;;;;90.27;58.63;;;11.70;86.00;;;;;;5018566;28;20201;-68
2022/03/17 05:12:12;;;;;;;88.33;59.07;;;11.60;86.00;;;;;;4995708;28;20239;-68
2022/03/17 05:14:39;;;;;;;87.10;58.73;;;11.60;86.20;;;;;;5022651;28;20205;-68
2022/03/17 05:17:07;;;;;;;86.70;57.03;;;11.60;86.40;;;;;;5009888;28;20731;-68
2022/03/17 05:19:34;;;;;;;86.10;58.53;;;11.60;86.60;;;;;;5024998;28;20301;-68
2022/03/17 05:22:01;;;;;;;87.77;57.43;;;11.60;86.80;;;;;;5021756;28;20274;-68
2022/03/17 05:24:28;;;;;;;86.10;60.43;;;11.60;86.90;;;;;;5026039;28;20207;-68
2022/03/17 05:26:57;;;;;;;94.43;59.83;;;11.60;87.20;;;;;;5028251;28;20213;-68
2022/03/17 05:29:25;;;;;;;89.90;58.53;;;11.50;87.20;;;;;;5022598;28;20207;-68
2022/03/17 05:31:52;;;;;;;89.97;59.57;;;11.50;87.50;;;;;;5031821;28;20204;-68
2022/03/17 05:34:19;;;;;;;86.13;58.30;;;11.50;87.80;;;;;;5015809;28;20261;-68
2022/03/17 05:36:46;;;;;;;89.17;57.83;;;11.50;87.90;;;;;;5031287;28;20224;-68
2022/03/17 05:39:13;;;;;;;84.40;56.07;;;11.50;88.20;;;;;;5028861;28;20234;-68
2022/03/17 05:41:40;;;;;;;81.40;56.73;;;11.40;88.50;;;;;;5018107;28;20193;-68
2022/03/17 05:44:08;;;;;;;90.20;56.07;;;11.40;88.60;;;;;;5022152;28;20653;-68
2022/03/17 05:46:35;;;;;;;84.17;57.10;;;11.30;88.90;;;;;;5021597;28;20246;-68
2022/03/17 05:49:02;;;;;;;80.57;53.97;;;11.40;89.10;;;;;;5023892;28;20265;-68
2022/03/17 05:51:29;;;;;;;80.53;55.07;;;11.40;89.40;;;;;;5021601;28;20205;-68
2022/03/17 05:53:56;;;;;;;82.93;54.57;;;11.30;89.60;;;;;;5023318;28;20204;-68
2022/03/17 05:56:23;;;;;;;89.27;55.60;;;11.30;89.90;;;;;;5025134;28;20238;-68
2022/03/17 05:58:50;;;;;;;77.77;54.60;;;11.30;90.00;;;;;;5028919;28;20265;-68
2022/03/17 06:01:18;;;;;;;86.27;58.23;;;11.30;90.00;;;;;;5030197;28;20605;-68
2022/03/17 06:03:45;;;;;;;78.63;53.30;;;11.30;90.20;;;;;;5025197;28;20198;-68
2022/03/17 06:06:13;;;;;;;83.90;54.90;;;11.30;90.20;;;;;;5022581;28;20260;-68
2022/03/17 06:08:40;;;;;;;85.10;56.13;;;11.30;90.30;;;;;;5017899;28;20287;-68
2022/03/17 06:11:07;;;;;;;85.87;56.10;;;11.30;90.30;;;;;;5030182;28;20205;-68
2022/03/17 06:13:35;;;;;;;82.87;55.47;;;11.20;90.30;;;;;;5016772;28;20638;-68
2022/03/17 06:16:03;;;;;;;86.53;55.33;;;11.20;90.40;;;;;;5032065;28;20537;-68
2022/03/17 06:18:30;;;;;;;83.30;54.33;;;11.20;90.40;;;;;;5028324;28;20632;-68
2022/03/17 06:20:57;;;;;;;93.73;57.53;;;11.20;90.40;;;;;;5029412;28;20206;-68
2022/03/17 06:23:24;;;;;;;88.63;55.87;;;11.20;90.60;;;;;;5027575;28;20700;-68
2022/03/17 06:25:52;;;;;;;80.67;55.40;;;11.20;90.70;;;;;;5025922;28;20278;-68
2022/03/17 06:28:19;;;;;;;89.07;56.40;;;11.20;90.80;;;;;;5023509;28;20207;-68
2022/03/17 06:30:47;;;;;;;88.23;55.33;;;11.20;90.90;;;;;;5013722;28;20310;-68
2022/03/17 06:33:14;;;;;;;87.10;57.70;;;11.20;90.90;;;;;;5018424;28;20540;-68
2022/03/17 06:35:41;;;;;;;84.13;56.87;;;11.20;90.90;;;;;;5024192;28;20284;-68
2022/03/17 06:38:08;;;;;;;86.80;56.27;;;11.20;91.00;;;;;;5036865;28;20200;-68
2022/03/17 06:40:36;;;;;;;88.20;57.13;;;11.20;91.10;;;;;;5021569;28;20202;-68
2022/03/17 06:43:03;;;;;;;83.17;55.97;;;11.20;91.10;;;;;;5033385;28;20197;-68
2022/03/17 06:45:31;;;;;;;94.03;59.60;;;11.20;91.10;;;;;;5033297;28;20200;-68
2022/03/17 06:47:58;;;;;;;88.87;59.07;;;11.20;91.20;;;;;;5014237;28;20240;-68
2022/03/17 06:50:26;;;;;;;89.33;59.53;;;11.30;91.20;;;;;;5029599;28;20222;-68
2022/03/17 06:52:54;;;;;;;82.87;56.83;;;11.30;91.20;;;;;;5026972;28;20282;-68
2022/03/17 06:55:22;;;;;;;83.77;55.07;;;11.30;91.10;;;;;;5026628;28;20213;-68
2022/03/17 06:57:49;;;;;;;89.40;57.67;;;11.30;91.10;;;;;;5009459;28;20305;-68
2022/03/17 07:00:18;;;;;;;89.53;57.73;;;11.40;91.10;;;;;;5023766;28;20237;-68
2022/03/17 07:02:46;;;;;;;88.67;57.83;;;11.40;91.10;;;;;;5032362;28;20209;-68
2022/03/17 07:05:14;;;;;;;85.13;55.73;;;11.40;91.10;;;;;;5008098;28;20740;-68
2022/03/17 07:07:42;;;;;;;82.10;56.47;;;11.40;91.10;;;;;;5032357;28;20511;-68
2022/03/17 07:10:11;;;;;;;92.87;58.40;;;11.50;91.10;;;;;;5019336;28;20204;-68
2022/03/17 07:12:41;;;;;;;86.77;57.17;;;11.50;91.20;;;;;;5035205;28;20205;-68
2022/03/17 07:15:09;;;;;;;90.20;57.73;;;11.50;91.20;;;;;;5016351;28;20674;-68
2022/03/17 07:17:41;;;;;;;89.30;56.10;;;11.50;91.10;;;;;;5026913;28;20307;-68
2022/03/17 07:20:16;;;;;;;87.73;57.77;;;11.50;91.20;;;;;;5026357;28;20200;-68
2022/03/17 07:22:46;;;;;;;91.73;57.53;;;11.50;91.10;;;;;;5025180;28;20548;-68
2022/03/17 07:25:14;;;;;;;101.90;60.10;;;11.50;91.10;;;;;;5023830;28;20208;-68
2022/03/17 07:27:44;;;;;;;86.80;58.97;;;11.50;91.20;;;;;;5025848;28;20256;-68
2022/03/17 07:30:14;;;;;;;95.73;58.90;;;11.50;91.20;;;;;;5023735;28;20218;-68
2022/03/17 07:32:41;;;;;;;84.63;57.07;;;11.60;91.10;;;;;;5022119;28;20214;-68
2022/03/17 07:35:09;;;;;;;85.27;59.80;;;11.60;91.00;;;;;;5016656;28;20212;-68
2022/03/17 07:37:36;;;;;;;89.00;60.13;;;11.70;91.00;;;;;;5027619;28;20224;-68
2022/03/17 07:40:03;;;;;;;85.60;59.00;;;11.70;90.90;;;;;;5017261;28;20210;-68
2022/03/17 07:42:30;;;;;;;93.10;59.40;;;11.70;90.80;;;;;;5016720;28;20240;-68
2022/03/17 07:45:15;;;;;;;82.37;55.97;;;11.80;90.90;;;;;;5017118;28;20264;-68
2022/03/17 07:48:01;;;;;;;85.03;57.60;;;11.80;90.90;;;;;;5020691;28;20225;-68
2022/03/17 07:50:28;;;;;;;86.60;57.10;;;11.90;90.90;;;;;;5004425;28;20216;-68
2022/03/17 07:52:55;;;;;;;85.73;57.03;;;11.90;90.80;;;;;;5027415;28;20214;-68
2022/03/17 07:55:23;;;;;;;88.77;58.53;;;11.90;90.80;;;;;;5027147;28;20213;-68
2022/03/17 07:57:51;;;;;;;82.33;56.63;;;12.00;90.80;;;;;;5024140;28;20239;-68
2022/03/17 08:00:18;;;;;;;81.63;55.83;;;12.00;90.70;;;;;;5027329;28;20527;-68
2022/03/17 08:02:45;;;;;;;84.20;58.00;;;12.00;90.60;;;;;;5018765;28;20197;-68
2022/03/17 08:05:13;;;;;;;88.33;57.97;;;12.00;90.60;;;;;;5020471;28;20212;-68
2022/03/17 08:07:41;;;;;;;85.97;58.20;;;12.10;90.60;;;;;;5019299;28;20219;-68
2022/03/17 08:10:09;;;;;;;86.80;56.80;;;12.10;90.70;;;;;;5016860;28;20202;-68
2022/03/17 08:12:36;;;;;;;82.30;55.87;;;12.10;90.60;;;;;;5035239;28;20230;-68
2022/03/17 08:15:05;;;;;;;85.23;58.17;;;12.20;90.60;;;;;;5004043;28;20280;-68
2022/03/17 08:17:34;;;;;;;90.67;56.80;;;12.20;90.50;;;;;;5020634;28;20259;-68
2022/03/17 08:20:03;;;;;;;90.97;59.43;;;12.20;90.40;;;;;;5023774;28;20282;-68
2022/03/17 08:22:30;;;;;;;82.87;56.10;;;12.20;90.30;;;;;;4999222;28;20215;-68
2022/03/17 08:24:57;;;;;;;82.07;53.57;;;12.30;90.40;;;;;;5022786;28;20214;-68
2022/03/17 08:27:24;;;;;;;81.80;57.03;;;12.30;90.20;;;;;;5024560;28;20615;-68
2022/03/17 08:29:51;;;;;;;82.67;58.13;;;12.30;90.10;;;;;;5009026;28;20219;-68
2022/03/17 08:32:18;;;;;;;91.17;58.27;;;12.30;90.10;;;;;;5027688;28;20696;-68
2022/03/17 08:34:45;;;;;;;86.63;58.50;;;12.40;90.20;;;;;;5027638;28;20221;-68
2022/03/17 08:37:12;;;;;;;85.53;55.77;;;12.40;90.10;;;;;;5011292;28;20242;-68
2022/03/17 08:39:39;;;;;;;87.77;59.60;;;12.50;90.20;;;;;;5025273;28;20625;-68
2022/03/17 08:42:07;;;;;;;90.80;58.03;;;12.50;90.00;;;;;;5018445;28;20200;-68
2022/03/17 08:44:34;;;;;;;86.27;56.23;;;12.60;89.90;;;;;;5017447;28;20212;-68
2022/03/17 08:49:46;;;;;;;84.23;56.83;;;12.70;88.90;;;;;;5022568;28;20210;-68
2022/03/17 08:52:13;;;;;;;84.80;56.93;;;12.80;88.80;;;;;;5021060;28;20225;-68
2022/03/17 08:54:42;;;;;;;85.00;58.70;;;12.80;88.90;;;;;;5011639;28;20217;-68
2022/03/17 08:57:11;;;;;;;82.77;57.13;;;12.80;89.00;;;;;;5009661;28;20223;-68
2022/03/17 08:59:38;;;;;;;79.10;55.17;;;12.90;89.00;;;;;;5023706;28;20210;-68
2022/03/17 09:02:10;;;;;;;82.33;58.13;;;13.00;88.20;;;;;;5023070;28;20249;-68
2022/03/17 09:04:38;;;;;;;76.77;56.03;;;13.00;87.90;;;;;;5009385;28;20199;-68
2022/03/17 09:07:05;;;;;;;78.53;55.70;;;13.00;87.90;;;;;;5016487;28;20538;-68
2022/03/17 09:09:36;;;;;;;74.53;54.97;;;13.10;87.90;;;;;;5017906;28;20215;-68
2022/03/17 09:12:06;;;;;;;80.13;57.17;;;13.10;87.30;;;;;;5015186;28;20219;-68
2022/03/17 09:14:44;;;;;;;82.40;57.40;;;13.20;87.10;;;;;;5012993;28;20207;-68
2022/03/17 09:17:11;;;;;;;79.33;55.97;;;13.10;86.80;;;;;;5033655;28;20598;-68
2022/03/17 09:19:38;;;;;;;82.40;55.47;;;13.20;86.60;;;;;;5023498;28;20228;-68
2022/03/17 09:22:08;;;;;;;78.63;57.17;;;13.20;87.10;;;;;;4998547;28;20198;-68
2022/03/17 09:24:35;;;;;;;81.57;57.37;;;13.20;86.70;;;;;;5025425;28;20252;-68
2022/03/17 09:27:02;;;;;;;84.37;56.57;;;13.20;86.40;;;;;;5027384;28;20202;-68
2022/03/17 09:29:30;;;;;;;75.50;55.70;;;13.30;86.60;;;;;;5025429;28;20296;-68
2022/03/17 09:32:00;;;;;;;76.17;55.70;;;13.20;86.50;;;;;;5023781;28;20205;-68
2022/03/17 09:34:31;;;;;;;74.27;54.47;;;13.30;86.20;;;;;;5024962;28;20342;-68
2022/03/17 09:36:59;;;;;;;82.83;56.67;;;13.30;86.10;;;;;;5021617;28;20221;-68
2022/03/17 09:39:45;;;;;;;75.33;53.77;;;13.30;85.90;;;;;;5025659;28;20613;-68
2022/03/17 09:42:15;;;;;;;78.80;55.87;;;13.40;85.70;;;;;;5019958;28;20215;-68
2022/03/17 09:44:46;;;;;;;82.57;55.47;;;13.30;85.90;;;;;;5036767;28;20274;-68
2022/03/17 09:47:18;;;;;;;77.33;54.77;;;13.40;85.90;;;;;;5018746;28;20312;-68
2022/03/17 09:49:47;;;;;;;78.43;54.43;;;13.30;85.40;;;;;;5005339;28;20240;-68
2022/03/17 09:52:17;;;;;;;81.33;57.13;;;13.40;85.20;;;;;;5022604;28;20209;-68
2022/03/17 09:54:46;;;;;;;82.90;56.70;;;13.40;85.20;;;;;;5020356;28;20586;-68
2022/03/17 09:57:16;;;;;;;78.30;55.30;;;13.40;85.00;;;;;;5024628;28;20310;-68
2022/03/17 09:59:57;;;;;;;84.37;56.80;;;13.40;84.70;;;;;;5026427;28;20212;-68
2022/03/17 10:02:24;;;;;;;76.80;55.30;;;13.40;85.00;;;;;;5026349;28;20248;-68
2022/03/17 10:04:52;;;;;;;77.87;55.13;;;13.40;84.40;;;;;;5029592;28;20506;-68
2022/03/17 10:07:23;;;;;;;82.77;54.40;;;13.40;84.60;;;;;;5008575;28;20559;-68
2022/03/17 10:09:50;;;;;;;78.30;55.60;;;13.40;84.40;;;;;;5023636;28;20202;-68
2022/03/17 10:12:22;;;;;;;75.50;53.73;;;13.40;84.00;;;;;;5024333;28;20530;-68
2022/03/17 10:14:52;;;;;;;74.17;52.67;;;13.40;84.10;;;;;;5035639;28;20226;-68
2022/03/17 10:17:31;;;;;;;76.60;51.30;;;13.50;84.10;;;;;;5021464;28;20512;-68
2022/03/17 10:20:28;;;;;;;76.77;55.43;;;13.50;83.60;;;;;;5017978;28;20514;-68
2022/03/17 10:23:02;;;;;;;74.23;53.30;;;13.50;83.30;;;;;;5019670;28;20271;-68
2022/03/17 10:25:31;;;;;;;74.07;52.63;;;13.50;83.20;;;;;;5023898;28;20216;-68
2022/03/17 10:27:59;;;;;;;73.10;52.20;;;13.60;83.00;;;;;;5009957;28;20217;-68
2022/03/17 10:30:35;;;;;;;74.43;52.80;;;13.60;82.50;;;;;;5025084;28;20210;-68
2022/03/17 10:33:20;;;;;;;77.33;55.03;;;13.60;82.00;;;;;;5027635;28;20652;-68
2022/03/17 10:35:48;;;;;;;82.70;54.33;;;13.50;82.20;;;;;;5025448;28;20669;-68
2022/03/17 10:38:19;;;;;;;76.30;55.40;;;13.60;82.50;;;;;;5024970;28;20294;-68
2022/03/17 10:41:12;;;;;;;74.60;52.10;;;13.60;82.40;;;;;;5023067;28;20236;-68
2022/03/17 10:43:42;;;;;;;79.97;55.63;;;13.60;82.10;;;;;;5028172;28;20203;-68
2022/03/17 10:46:20;;;;;;;73.27;49.87;;;13.60;82.60;;;;;;5034903;28;20207;-68
2022/03/17 10:49:01;;;;;;;81.03;56.17;;;13.60;82.30;;;;;;5031463;28;20212;-68
2022/03/17 10:51:39;;;;;;;86.03;55.77;;;13.60;82.10;;;;;;5018678;28;20217;-69
2022/03/17 10:54:18;;;;;;;79.30;55.27;;;13.70;82.10;;;;;;5018722;28;20208;-70
2022/03/17 10:57:10;;;;;;;75.40;51.97;;;13.70;81.60;;;;;;5019818;28;20553;-70
2022/03/17 10:59:47;;;;;;;75.73;54.00;;;13.70;82.30;;;;;;5021159;28;20239;-70
2022/03/17 11:02:25;;;;;;;73.17;52.50;;;13.60;81.40;;;;;;5028544;28;20243;-70
2022/03/17 11:04:52;;;;;;;82.20;53.57;;;13.60;81.30;;;;;;5025165;28;20195;-70
2022/03/17 11:07:21;;;;;;;68.37;50.20;;;13.60;81.80;;;;;;5025888;28;20211;-70
2022/03/17 11:09:48;;;;;;;71.17;50.00;;;13.60;81.60;;;;;;5029823;28;20206;-70
2022/03/17 11:12:17;;;;;;;70.30;49.37;;;13.60;81.20;;;;;;5030394;28;20320;-70
2022/03/17 11:14:50;;;;;;;72.83;50.60;;;13.60;81.00;;;;;;5015528;28;20639;-70
2022/03/17 11:17:23;;;;;;;67.97;48.73;;;13.60;80.80;;;;;;5019309;28;20224;-70
2022/03/17 11:19:52;;;;;;;77.23;54.50;;;13.60;80.90;;;;;;5017745;28;20210;-70
2022/03/17 11:22:22;;;;;;;81.57;54.83;;;13.70;81.20;;;;;;5014317;28;20209;-70
2022/03/17 11:25:20;;;;;;;76.23;55.80;;;13.70;80.90;;;;;;5019074;28;20559;-70
2022/03/17 11:27:49;;;;;;;76.53;53.80;;;13.70;80.80;;;;;;5020919;28;20204;-70
2022/03/17 11:30:17;;;;;;;71.33;50.87;;;13.70;80.70;;;;;;5023086;28;20241;-70
2022/03/17 11:32:56;;;;;;;68.50;48.63;;;13.70;79.80;;;;;;5008726;28;20200;-70
2022/03/17 11:35:29;;;;;;;67.83;49.00;;;13.70;79.30;;;;;;5026160;28;20217;-70
2022/03/17 11:38:17;;;;;;;70.87;50.10;;;13.70;79.40;;;;;;5023737;28;20221;-70
2022/03/17 11:41:20;;;;;;;65.43;48.40;;;13.70;79.70;;;;;;5021584;28;20226;-70
2022/03/17 11:43:47;;;;;;;73.80;52.77;;;13.80;79.70;;;;;;4960029;28;20210;-70
2022/03/17 11:46:15;;;;;;;75.33;51.87;;;13.90;79.30;;;;;;5020183;28;20645;-70
2022/03/17 11:48:45;;;;;;;79.00;51.50;;;13.90;78.70;;;;;;5019613;28;20215;-70
2022/03/17 11:51:15;;;;;;;70.47;51.00;;;14.00;78.90;;;;;;5012818;28;20642;-70
2022/03/17 11:53:44;;;;;;;62.63;47.13;;;14.10;79.30;;;;;;5018732;28;20219;-70
2022/03/17 11:56:43;;;;;;;65.53;46.33;;;14.20;77.30;;;;;;5016860;28;20234;-70
2022/03/17 11:59:16;;;;;;;64.20;45.27;;;14.30;76.30;;;;;;5014554;28;20215;-70
2022/03/17 12:01:46;;;;;;;65.07;47.53;;;14.40;75.00;;;;;;5012660;28;20780;-70
2022/03/17 12:04:24;;;;;;;67.10;48.67;;;14.40;75.20;;;;;;5010622;28;20228;-70
2022/03/17 12:06:53;;;;;;;66.23;48.23;;;14.50;74.40;;;;;;5018270;28;20206;-70
2022/03/17 12:09:31;;;;;;;64.67;47.67;;;14.60;73.40;;;;;;5024799;28;20205;-70
2022/03/17 12:11:58;;;;;;;69.53;46.47;;;14.70;73.50;;;;;;5008983;28;20218;-70
2022/03/17 12:14:27;;;;;;;60.20;44.87;;;14.70;72.30;;;;;;5027357;28;20630;-70
2022/03/17 12:17:22;;;;;;;74.23;47.63;;;14.80;71.00;;;;;;5023450;28;20263;-70
2022/03/17 12:20:08;;;;;;;64.30;45.20;;;14.90;70.00;;;;;;5014094;28;20233;-70
2022/03/17 12:22:44;;;;;;;63.67;47.37;;;14.90;70.40;;;;;;5033543;28;20218;-70
2022/03/17 12:25:23;;;;;;;68.47;46.63;;;15.00;69.40;;;;;;5034513;28;20530;-70
2022/03/17 12:27:55;;;;;;;65.13;47.77;;;15.10;70.00;;;;;;5033007;28;20209;-70
2022/03/17 12:30:25;;;;;;;55.13;40.60;;;15.10;69.40;;;;;;5030900;28;20214;-70
2022/03/17 12:32:58;;;;;;;56.97;41.80;;;15.20;67.90;;;;;;5029818;28;20209;-70
2022/03/17 12:35:31;;;;;;;62.33;45.20;;;15.30;67.10;;;;;;5026711;28;20661;-70
2022/03/17 12:38:01;;;;;;;61.50;43.77;;;15.50;68.00;;;;;;5008895;28;20675;-70
2022/03/17 12:40:34;;;;;;;55.33;41.00;;;15.60;66.60;;;;;;5024248;28;20205;-70
2022/03/17 12:43:21;;;;;;;45.40;36.27;;;15.80;65.90;;;;;;5021594;28;20530;-70
2022/03/17 12:45:51;;;;;;;55.40;39.40;;;15.90;65.10;;;;;;5018640;28;20206;-70
2022/03/17 12:48:19;;;;;;;51.67;39.97;;;16.00;64.70;;;;;;5028284;28;20214;-70
2022/03/17 12:50:47;;;;;;;51.23;39.17;;;16.20;64.50;;;;;;5023049;28;20301;-69
2022/03/17 12:53:14;;;;;;;49.23;36.63;;;16.20;62.50;;;;;;5023926;28;20627;-69